createdAt,value
2023-01-26T00:01:14.700Z,23.70
2023-01-26T00:04:57.387Z,22.10
2023-01-26T00:08:40.798Z,29.00
2023-01-26T00:12:23.476Z,25.97
2023-01-26T00:16:10.448Z,25.47
2023-01-26T00:19:55.171Z,22.83
2023-01-26T00:23:37.828Z,25.50
2023-01-26T00:27:20.525Z,21.37
2023-01-26T00:31:04.583Z,26.93
2023-01-26T00:34:48.664Z,26.77
2023-01-26T00:38:31.438Z,22.90
2023-01-26T00:42:15.839Z,24.07
2023-01-26T00:45:58.624Z,24.43
2023-01-26T00:49:41.358Z,23.80
2023-01-26T00:53:25.399Z,27.50
2023-01-26T00:57:08.262Z,26.93
2023-01-26T01:00:51.069Z,24.17
2023-01-26T01:04:33.827Z,26.40
2023-01-26T01:08:16.547Z,25.57
2023-01-26T01:12:00.592Z,26.67
2023-01-26T01:15:43.283Z,26.47
2023-01-26T01:19:26.038Z,26.63
2023-01-26T01:23:08.762Z,27.07
2023-01-26T01:26:51.396Z,29.37
2023-01-26T01:30:35.406Z,25.23
2023-01-26T01:34:18.085Z,26.00
2023-01-26T01:38:00.739Z,24.57
2023-01-26T01:41:43.437Z,27.20
2023-01-26T01:45:41.555Z,26.07
2023-01-26T01:49:27.630Z,26.03
2023-01-26T01:53:13.626Z,30.07
2023-01-26T01:56:59.536Z,28.43
2023-01-26T02:00:43.834Z,25.60
2023-01-26T02:04:27.272Z,28.13
2023-01-26T02:08:11.081Z,26.20
2023-01-26T02:11:53.782Z,26.20
2023-01-26T02:15:36.813Z,23.63
2023-01-26T02:19:27.619Z,27.97
2023-01-26T02:23:20.488Z,27.60
2023-01-26T02:27:04.739Z,25.77
2023-01-26T02:30:47.756Z,25.77
2023-01-26T02:34:30.452Z,25.87
2023-01-26T02:38:13.219Z,26.63
2023-01-26T02:42:13.926Z,27.13
2023-01-26T02:45:58.104Z,30.30
2023-01-26T02:49:50.755Z,29.17
2023-01-26T02:53:33.645Z,32.43
2023-01-26T02:57:16.297Z,34.17
2023-01-26T03:01:00.360Z,30.17
2023-01-26T03:04:43.783Z,27.90
2023-01-26T03:08:26.755Z,27.93
2023-01-26T03:12:09.502Z,31.73
2023-01-26T03:15:54.709Z,29.07
2023-01-26T03:19:56.114Z,28.33
2023-01-26T03:23:56.588Z,31.43
2023-01-26T03:27:43.425Z,31.70
2023-01-26T03:31:26.147Z,29.47
2023-01-26T03:35:15.968Z,29.23
2023-01-26T03:38:58.695Z,29.17
2023-01-26T03:42:59.144Z,27.77
2023-01-26T03:46:59.194Z,30.20
2023-01-26T03:51:00.587Z,30.20
2023-01-26T03:55:01.056Z,28.60
2023-01-26T03:58:43.712Z,30.30
2023-01-26T04:02:44.157Z,34.70
2023-01-26T04:06:45.936Z,33.03
2023-01-26T04:10:28.994Z,32.10
2023-01-26T04:14:30.215Z,32.30
2023-01-26T04:18:34.364Z,34.17
2023-01-26T04:22:18.376Z,29.53
2023-01-26T04:26:01.020Z,30.43
2023-01-26T04:29:43.720Z,29.37
2023-01-26T04:33:26.424Z,28.03
2023-01-26T04:37:10.413Z,28.87
2023-01-26T04:40:55.679Z,30.73
2023-01-26T04:44:38.362Z,29.70
2023-01-26T04:48:21.046Z,29.87
2023-01-26T04:52:03.727Z,31.73
2023-01-26T04:55:46.378Z,30.10
2023-01-26T04:59:30.688Z,28.73
2023-01-26T05:03:13.335Z,28.63
2023-01-26T05:06:56.112Z,34.60
2023-01-26T05:10:38.852Z,29.57
2023-01-26T05:14:21.481Z,30.80
2023-01-26T05:18:06.149Z,30.23
2023-01-26T05:21:48.853Z,28.43
2023-01-26T05:25:31.816Z,28.50
2023-01-26T05:29:14.746Z,28.73
2023-01-26T05:33:02.016Z,29.73
2023-01-26T05:36:46.052Z,31.00
2023-01-26T05:40:28.821Z,33.10
2023-01-26T05:44:11.704Z,35.73
2023-01-26T05:47:54.428Z,30.13
2023-01-26T05:51:37.074Z,28.90
2023-01-26T05:55:21.244Z,34.03
2023-01-26T05:59:03.948Z,29.10
2023-01-26T06:02:48.611Z,30.73
2023-01-26T06:06:31.475Z,32.63
2023-01-26T06:10:14.337Z,27.80
2023-01-26T06:13:58.386Z,28.57
2023-01-26T06:17:41.222Z,29.57
2023-01-26T06:21:23.879Z,28.80
2023-01-26T06:25:07.031Z,36.10
2023-01-26T06:28:49.768Z,27.83
2023-01-26T06:32:33.695Z,30.10
2023-01-26T06:36:16.668Z,31.87
2023-01-26T06:39:59.493Z,28.30
2023-01-26T06:43:45.635Z,29.17
2023-01-26T06:47:28.358Z,20.10
2023-01-26T06:51:46.439Z,27.43
2023-01-26T06:55:35.769Z,25.57
2023-01-26T06:59:18.449Z,30.60
2023-01-26T07:03:01.216Z,27.97
2023-01-26T07:06:43.991Z,31.17
2023-01-26T07:10:26.658Z,32.93
2023-01-26T07:14:10.621Z,29.17
2023-01-26T07:17:54.527Z,23.90
2023-01-26T07:21:39.102Z,26.70
2023-01-26T07:25:21.822Z,32.97
2023-01-26T07:29:04.495Z,25.83
2023-01-26T07:32:48.587Z,27.40
2023-01-26T07:36:31.308Z,27.27
2023-01-26T07:40:14.461Z,26.43
2023-01-26T07:43:57.274Z,31.17
2023-01-26T07:47:39.906Z,29.43
2023-01-26T07:51:23.930Z,30.10
2023-01-26T07:55:07.531Z,31.60
2023-01-26T07:58:51.563Z,27.60
2023-01-26T08:02:34.386Z,34.70
2023-01-26T08:06:18.431Z,31.37
2023-01-26T08:10:02.816Z,29.23
2023-01-26T08:13:45.470Z,29.53
2023-01-26T08:17:29.626Z,29.60
2023-01-26T08:21:12.515Z,32.43
2023-01-26T08:24:55.126Z,31.70
2023-01-26T08:28:39.078Z,30.37
2023-01-26T08:32:21.744Z,32.50
2023-01-26T08:36:05.315Z,28.63
2023-01-26T08:39:47.962Z,32.10
2023-01-26T08:43:31.061Z,31.17
2023-01-26T08:47:15.073Z,27.23
2023-01-26T08:50:58.621Z,29.40
2023-01-26T08:54:41.291Z,30.43
2023-01-26T08:58:23.992Z,30.47
2023-01-26T09:02:07.025Z,32.83
2023-01-26T09:05:51.065Z,28.30
2023-01-26T09:09:34.443Z,24.90
2023-01-26T09:13:17.115Z,27.40
2023-01-26T09:16:59.803Z,30.00
2023-01-26T09:20:42.511Z,32.30
2023-01-26T09:24:26.690Z,26.70
2023-01-26T09:28:09.389Z,27.63
2023-01-26T09:31:52.238Z,29.27
2023-01-26T09:35:34.926Z,27.37
2023-01-26T09:39:20.622Z,29.37
2023-01-26T09:43:18.576Z,32.00
2023-01-26T09:47:07.797Z,29.40
2023-01-26T09:50:55.637Z,29.27
2023-01-26T09:54:41.359Z,36.43
2023-01-26T09:58:33.478Z,29.83
2023-01-26T10:02:26.895Z,29.97
2023-01-26T10:06:15.445Z,28.53
2023-01-26T10:09:58.455Z,29.67
2023-01-26T10:13:46.277Z,28.70
2023-01-26T10:17:32.733Z,26.97
2023-01-26T10:21:16.840Z,24.50
2023-01-26T10:25:01.128Z,23.80
2023-01-26T10:28:46.750Z,24.23
2023-01-26T10:32:29.478Z,29.07
2023-01-26T10:36:13.670Z,24.10
2023-01-26T10:40:01.590Z,26.47
2023-01-26T10:43:51.956Z,28.27
2023-01-26T10:47:34.649Z,23.73
2023-01-26T10:51:24.841Z,25.37
2023-01-26T10:55:13.676Z,20.70
2023-01-26T10:59:03.077Z,23.23
2023-01-26T11:02:51.876Z,28.70
2023-01-26T11:06:35.422Z,20.77
2023-01-26T11:10:24.566Z,25.43
2023-01-26T11:14:17.920Z,24.30
2023-01-26T11:18:02.105Z,27.43
2023-01-26T11:21:49.653Z,26.63
2023-01-26T11:25:38.871Z,24.47
2023-01-26T11:29:38.321Z,22.67
2023-01-26T11:33:28.716Z,28.03
2023-01-26T11:37:33.015Z,21.37
2023-01-26T11:41:26.004Z,25.80
2023-01-26T11:45:23.344Z,19.13
2023-01-26T11:49:17.240Z,21.17
2023-01-26T11:53:15.984Z,21.53
2023-01-26T11:57:07.364Z,18.53
2023-01-26T12:00:53.920Z,24.87
2023-01-26T12:04:39.168Z,25.20
2023-01-26T12:08:24.985Z,25.67
2023-01-26T12:12:11.764Z,24.17
2023-01-26T12:15:59.371Z,22.23
2023-01-26T12:19:46.243Z,23.00
2023-01-26T12:23:33.387Z,26.07
2023-01-26T12:27:19.753Z,24.20
2023-01-26T12:31:08.042Z,24.87
2023-01-26T12:34:51.122Z,27.63
2023-01-26T12:38:42.008Z,20.43
2023-01-26T12:42:31.174Z,24.47
2023-01-26T12:46:15.735Z,19.90
2023-01-26T12:50:01.999Z,22.73
2023-01-26T12:53:50.728Z,20.67
2023-01-26T12:57:37.095Z,17.30
2023-01-26T13:01:23.799Z,18.27
2023-01-26T13:05:07.903Z,21.53
2023-01-26T13:08:54.668Z,26.13
2023-01-26T13:12:48.397Z,27.80
2023-01-26T13:16:36.115Z,25.90
2023-01-26T13:20:27.406Z,20.90
2023-01-26T13:24:43.516Z,29.00
2023-01-26T13:28:28.873Z,23.27
2023-01-26T13:36:47.685Z,22.13
2023-01-26T13:40:33.305Z,20.67
2023-01-26T13:44:18.387Z,25.47
2023-01-26T13:48:03.578Z,26.23
2023-01-26T13:51:47.736Z,23.30
2023-01-26T13:55:32.122Z,23.63
2023-01-26T13:59:16.575Z,24.07
2023-01-26T14:02:59.249Z,23.87
2023-01-26T14:06:43.415Z,27.50
2023-01-26T14:10:28.103Z,18.93
2023-01-26T14:14:20.912Z,19.93
2023-01-26T14:18:05.491Z,22.43
2023-01-26T14:21:51.152Z,22.67
2023-01-26T14:25:35.841Z,23.40
2023-01-26T14:29:22.564Z,19.63
2023-01-26T14:33:06.782Z,19.73
2023-01-26T14:36:49.581Z,21.80
2023-01-26T14:40:32.356Z,28.17
2023-01-26T14:44:16.865Z,22.93
2023-01-26T14:48:03.046Z,19.30
2023-01-26T14:51:46.804Z,26.10
2023-01-26T14:55:31.098Z,23.47
2023-01-26T14:59:22.003Z,22.93
2023-01-26T15:03:07.456Z,24.60
2023-01-26T15:06:50.100Z,25.73
2023-01-26T15:10:36.521Z,23.30
2023-01-26T15:14:32.137Z,24.40
2023-01-26T15:18:19.914Z,21.00
2023-01-26T15:22:02.607Z,23.63
2023-01-26T15:25:45.433Z,22.67
2023-01-26T15:29:32.312Z,22.63
2023-01-26T15:33:39.721Z,19.70
2023-01-26T15:37:29.999Z,22.33
2023-01-26T15:41:12.724Z,25.37
2023-01-26T15:44:56.921Z,24.67
2023-01-26T15:48:39.768Z,22.07
2023-01-26T15:52:25.448Z,23.53
2023-01-26T15:56:13.268Z,25.70
2023-01-26T15:59:57.750Z,22.07
2023-01-26T16:03:40.376Z,20.33
2023-01-26T16:07:23.061Z,23.17
2023-01-26T16:11:09.674Z,22.53
2023-01-26T16:14:52.358Z,21.40
2023-01-26T16:18:36.566Z,27.37
2023-01-26T16:22:19.336Z,20.70
2023-01-26T16:26:01.998Z,24.90
2023-01-26T16:29:44.700Z,22.23
2023-01-26T16:33:27.482Z,21.50
2023-01-26T16:37:11.784Z,23.20
2023-01-26T16:40:54.865Z,23.07
2023-01-26T16:44:37.536Z,30.17
2023-01-26T16:48:20.342Z,27.80
2023-01-26T16:52:03.128Z,25.53
2023-01-26T16:55:47.185Z,25.90
2023-01-26T16:59:30.006Z,25.17
2023-01-26T17:03:13.846Z,24.83
2023-01-26T17:06:56.640Z,25.27
2023-01-26T17:10:51.864Z,21.10
2023-01-26T17:14:43.771Z,24.20
2023-01-26T17:18:27.122Z,22.57
2023-01-26T17:22:09.770Z,19.67
2023-01-26T17:25:58.499Z,26.47
2023-01-26T17:29:42.206Z,20.77
2023-01-26T17:33:26.433Z,22.00
2023-01-26T17:37:09.505Z,21.90
2023-01-26T17:40:55.611Z,20.67
2023-01-26T17:44:38.365Z,20.50
2023-01-26T17:48:20.976Z,21.63
2023-01-26T17:52:06.210Z,20.40
2023-01-26T17:55:48.811Z,28.43
2023-01-26T17:59:31.512Z,25.03
2023-01-26T18:03:14.291Z,24.63
2023-01-26T18:06:57.003Z,21.93
2023-01-26T18:10:41.312Z,24.67
2023-01-26T18:14:24.006Z,20.80
2023-01-26T18:18:06.834Z,23.33
2023-01-26T18:21:51.193Z,24.93
2023-01-26T18:25:34.706Z,23.50
2023-01-26T18:29:18.810Z,21.80
2023-01-26T18:33:01.565Z,25.37
2023-01-26T18:36:44.230Z,21.53
2023-01-26T18:40:26.921Z,22.07
2023-01-26T18:44:09.684Z,25.30
2023-01-26T18:47:53.660Z,24.77
2023-01-26T18:51:37.192Z,25.03
2023-01-26T18:55:22.528Z,27.00
2023-01-26T18:59:06.412Z,25.00
2023-01-26T19:02:49.084Z,25.10
2023-01-26T19:06:33.641Z,21.37
2023-01-26T19:10:17.222Z,20.83
2023-01-26T19:14:01.283Z,30.80
2023-01-26T19:17:44.920Z,26.57
2023-01-26T19:21:28.109Z,28.90
2023-01-26T19:25:12.812Z,26.30
2023-01-26T19:28:55.840Z,24.83
2023-01-26T19:32:38.556Z,24.93
2023-01-26T19:36:21.382Z,24.73
2023-01-26T19:40:04.223Z,26.70
2023-01-26T19:43:50.355Z,23.23
2023-01-26T19:47:33.343Z,23.67
2023-01-26T19:51:17.739Z,20.13
2023-01-26T19:55:00.408Z,21.70
2023-01-26T19:58:43.869Z,22.07
2023-01-26T20:02:27.885Z,23.27
2023-01-26T20:06:15.847Z,22.00
2023-01-26T20:09:58.525Z,24.03
2023-01-26T20:13:41.293Z,20.73
2023-01-26T20:17:23.915Z,23.07
2023-01-26T20:21:08.206Z,23.50
2023-01-26T20:24:50.882Z,18.03
2023-01-26T20:28:33.716Z,20.00
2023-01-26T20:32:16.342Z,22.47
2023-01-26T20:35:58.977Z,17.77
2023-01-26T20:39:45.419Z,20.80
2023-01-26T20:43:29.488Z,18.40
2023-01-26T20:47:12.515Z,18.27
2023-01-26T20:50:55.177Z,19.77
2023-01-26T20:54:37.897Z,15.27
2023-01-26T20:58:22.038Z,15.83
2023-01-26T21:02:05.241Z,18.33
2023-01-26T21:05:47.923Z,18.00
2023-01-26T21:09:30.557Z,15.17
2023-01-26T21:13:13.323Z,20.17
2023-01-26T21:16:57.382Z,19.77
2023-01-26T21:20:40.061Z,18.10
2023-01-26T21:24:23.237Z,20.10
2023-01-26T21:28:06.246Z,20.13
2023-01-26T21:31:51.999Z,21.17
2023-01-26T21:35:36.085Z,20.23
2023-01-26T21:39:21.117Z,20.17
2023-01-26T21:43:04.772Z,16.47
2023-01-26T21:46:48.766Z,18.53
2023-01-26T21:50:51.411Z,18.43
2023-01-26T21:54:35.828Z,18.77
2023-01-26T21:58:36.122Z,16.27
2023-01-26T22:02:18.772Z,29.23
2023-01-26T22:06:01.523Z,18.63
2023-01-26T22:09:45.584Z,17.10
2023-01-26T22:13:31.326Z,18.53
2023-01-26T22:17:13.976Z,17.37
2023-01-26T22:20:56.833Z,17.03
2023-01-26T22:24:39.942Z,18.93
2023-01-26T22:28:24.025Z,17.77
2023-01-26T22:32:06.827Z,16.53
2023-01-26T22:35:49.563Z,18.30
2023-01-26T22:39:32.209Z,20.70
2023-01-26T22:43:14.898Z,22.23
2023-01-26T22:46:58.922Z,25.83
2023-01-26T22:50:41.595Z,22.87
2023-01-26T22:54:24.250Z,23.80
2023-01-26T22:58:06.892Z,21.67
2023-01-26T23:01:49.572Z,19.23
2023-01-26T23:05:34.209Z,21.17
2023-01-26T23:09:16.858Z,20.77
2023-01-26T23:12:59.549Z,17.53
2023-01-26T23:16:42.297Z,18.50
2023-01-26T23:20:24.931Z,17.97
2023-01-26T23:24:09.742Z,17.00
2023-01-26T23:27:52.472Z,19.23
2023-01-26T23:31:35.217Z,18.37
2023-01-26T23:35:18.456Z,19.77
2023-01-26T23:39:01.149Z,15.93
2023-01-26T23:43:06.906Z,16.67
2023-01-26T23:46:50.913Z,17.57
2023-01-26T23:50:33.690Z,16.57
2023-01-26T23:54:16.497Z,15.50
2023-01-26T23:58:00.541Z,16.07
